createdAt,value
2022-10-19T00:01:23.852Z,100.00
2022-10-19T00:04:11.277Z,100.00
2022-10-19T00:06:58.684Z,100.00
2022-10-19T00:09:46.114Z,100.00
2022-10-19T00:12:33.560Z,100.00
2022-10-19T00:15:21.062Z,100.00
2022-10-19T00:18:09.659Z,100.00
2022-10-19T00:21:06.242Z,100.00
2022-10-19T00:23:54.079Z,100.00
2022-10-19T00:26:44.275Z,100.00
2022-10-19T00:29:32.111Z,100.00
2022-10-19T00:32:19.641Z,100.00
2022-10-19T00:35:08.062Z,100.00
2022-10-19T00:37:55.351Z,100.00
2022-10-19T00:40:42.985Z,100.00
2022-10-19T00:43:32.028Z,100.00
2022-10-19T00:46:19.443Z,100.00
2022-10-19T00:49:28.684Z,100.00
2022-10-19T00:52:24.881Z,100.00
2022-10-19T00:55:13.959Z,100.00
2022-10-19T00:58:04.099Z,100.00
2022-10-19T01:00:51.607Z,100.00
2022-10-19T01:03:40.630Z,100.00
2022-10-19T01:06:28.830Z,100.00
2022-10-19T01:09:16.167Z,100.00
2022-10-19T01:12:51.499Z,100.00
2022-10-19T01:16:06.433Z,100.00
2022-10-19T01:19:38.614Z,100.00
2022-10-19T01:23:25.814Z,100.00
2022-10-19T01:26:28.191Z,100.00
2022-10-19T01:29:55.918Z,100.00
2022-10-19T01:33:19.961Z,100.00
2022-10-19T01:36:14.711Z,100.00
2022-10-19T01:39:36.320Z,100.00
2022-10-19T01:42:45.021Z,100.00
2022-10-19T01:46:13.270Z,100.00
2022-10-19T01:49:29.539Z,100.00
2022-10-19T01:52:23.534Z,100.00
2022-10-19T01:55:17.690Z,100.00
2022-10-19T01:58:15.841Z,100.00
2022-10-19T02:04:24.884Z,100.00
2022-10-19T02:07:13.224Z,100.00
2022-10-19T02:10:01.158Z,100.00
2022-10-19T02:12:51.981Z,100.00
2022-10-19T02:15:49.409Z,100.00
2022-10-19T02:18:49.270Z,100.00
2022-10-19T02:21:36.736Z,100.00
2022-10-19T02:24:24.062Z,100.00
2022-10-19T02:27:12.223Z,100.00
2022-10-19T02:29:59.962Z,100.00
2022-10-19T02:32:47.374Z,100.00
2022-10-19T02:35:35.518Z,100.00
2022-10-19T02:38:25.301Z,100.00
2022-10-19T02:41:31.286Z,100.00
2022-10-19T02:44:40.000Z,100.00
2022-10-19T02:47:54.842Z,100.00
2022-10-19T02:50:49.956Z,100.00
2022-10-19T02:53:37.287Z,100.00
2022-10-19T02:56:24.958Z,100.00
2022-10-19T02:59:12.245Z,100.00
2022-10-19T03:01:59.565Z,100.00
2022-10-19T03:07:54.678Z,100.00
2022-10-19T03:10:42.012Z,100.00
2022-10-19T03:13:29.365Z,100.00
2022-10-19T03:16:16.691Z,100.00
2022-10-19T03:19:04.053Z,100.00
2022-10-19T03:21:51.367Z,100.00
2022-10-19T03:24:38.712Z,100.00
2022-10-19T03:27:26.029Z,100.00
2022-10-19T03:30:13.377Z,100.00
2022-10-19T03:33:00.674Z,100.00
2022-10-19T03:35:48.191Z,100.00
2022-10-19T03:38:35.541Z,100.00
2022-10-19T03:41:28.237Z,100.00
2022-10-19T03:44:15.609Z,100.00
2022-10-19T03:47:02.911Z,100.00
2022-10-19T03:49:50.714Z,100.00
2022-10-19T03:52:38.006Z,100.00
2022-10-19T03:55:25.314Z,100.00
2022-10-19T03:58:12.882Z,100.00
2022-10-19T04:01:00.735Z,100.00
2022-10-19T04:03:57.122Z,100.00
2022-10-19T04:06:48.848Z,100.00
2022-10-19T04:09:36.179Z,100.00
2022-10-19T04:12:23.697Z,100.00
2022-10-19T04:15:11.224Z,100.00
2022-10-19T04:17:58.564Z,100.00
2022-10-19T04:20:45.966Z,100.00
2022-10-19T04:23:36.339Z,100.00
2022-10-19T04:26:23.745Z,100.00
2022-10-19T04:29:12.539Z,100.00
2022-10-19T04:31:59.958Z,100.00
2022-10-19T04:34:47.282Z,100.00
2022-10-19T04:37:34.990Z,100.00
2022-10-19T04:40:22.554Z,100.00
2022-10-19T04:43:09.834Z,100.00
2022-10-19T04:45:57.155Z,100.00
2022-10-19T04:48:48.056Z,100.00
2022-10-19T04:51:35.763Z,100.00
2022-10-19T04:54:23.271Z,100.00
2022-10-19T04:57:10.603Z,100.00
2022-10-19T04:59:57.884Z,100.00
2022-10-19T05:02:47.571Z,100.00
2022-10-19T05:05:35.818Z,100.00
2022-10-19T05:08:23.105Z,100.00
2022-10-19T05:11:14.923Z,100.00
2022-10-19T05:14:02.238Z,100.00
2022-10-19T05:16:49.525Z,100.00
2022-10-19T05:19:36.804Z,100.00
2022-10-19T05:22:25.033Z,100.00
2022-10-19T05:25:12.400Z,100.00
2022-10-19T05:27:59.825Z,100.00
2022-10-19T05:30:49.048Z,100.00
2022-10-19T05:33:37.244Z,100.00
2022-10-19T05:36:32.331Z,100.00
2022-10-19T05:39:19.725Z,100.00
2022-10-19T05:42:11.439Z,100.00
2022-10-19T05:44:59.065Z,100.00
2022-10-19T05:47:46.367Z,100.00
2022-10-19T05:50:33.727Z,100.00
2022-10-19T05:53:21.400Z,100.00
2022-10-19T05:56:16.603Z,100.00
2022-10-19T05:59:10.264Z,100.00
2022-10-19T06:01:57.602Z,100.00
2022-10-19T06:04:44.916Z,100.00
2022-10-19T06:07:32.657Z,100.00
2022-10-19T06:10:21.316Z,100.00
2022-10-19T06:13:09.843Z,100.00
2022-10-19T06:15:57.184Z,100.00
2022-10-19T06:18:45.577Z,100.00
2022-10-19T06:21:35.267Z,100.00
2022-10-19T06:24:22.560Z,100.00
2022-10-19T06:27:09.904Z,100.00
2022-10-19T06:29:57.201Z,100.00
2022-10-19T06:32:44.503Z,100.00
2022-10-19T06:35:31.887Z,100.00
2022-10-19T06:38:19.180Z,100.00
2022-10-19T06:41:07.297Z,100.00
2022-10-19T06:43:55.973Z,100.00
2022-10-19T06:46:43.231Z,100.00
2022-10-19T06:49:30.558Z,100.00
2022-10-19T06:52:17.825Z,100.00
2022-10-19T06:55:06.158Z,100.00
2022-10-19T06:57:53.399Z,100.00
2022-10-19T07:00:41.103Z,100.00
2022-10-19T07:03:30.626Z,100.00
2022-10-19T07:06:18.116Z,100.00
2022-10-19T07:09:05.720Z,100.00
2022-10-19T07:11:53.083Z,100.00
2022-10-19T07:14:40.412Z,100.00
2022-10-19T07:17:27.759Z,100.00
2022-10-19T07:20:15.062Z,100.00
2022-10-19T07:23:02.795Z,100.00
2022-10-19T07:25:52.566Z,100.00
2022-10-19T07:28:43.947Z,100.00
2022-10-19T07:31:32.764Z,100.00
2022-10-19T07:34:20.041Z,100.00
2022-10-19T07:37:07.391Z,100.00
2022-10-19T07:39:54.680Z,100.00
2022-10-19T07:42:41.922Z,100.00
2022-10-19T07:45:30.071Z,100.00
2022-10-19T07:48:17.372Z,100.00
2022-10-19T07:51:09.088Z,100.00
2022-10-19T07:53:58.474Z,100.00
2022-10-19T07:56:45.660Z,100.00
2022-10-19T07:59:32.952Z,100.00
2022-10-19T08:02:20.568Z,100.00
2022-10-19T08:05:11.621Z,100.00
2022-10-19T08:07:59.430Z,100.00
2022-10-19T08:10:46.714Z,100.00
2022-10-19T08:13:34.627Z,100.00
2022-10-19T08:16:44.324Z,100.00
2022-10-19T08:19:31.660Z,100.00
2022-10-19T08:22:19.039Z,100.00
2022-10-19T08:25:06.825Z,100.00
2022-10-19T08:27:54.139Z,100.00
2022-10-19T08:30:41.570Z,100.00
2022-10-19T08:33:28.860Z,100.00
2022-10-19T08:36:17.293Z,100.00
2022-10-19T08:39:09.344Z,100.00
2022-10-19T08:42:23.743Z,100.00
2022-10-19T08:48:49.429Z,100.00
2022-10-19T08:51:43.196Z,100.00
2022-10-19T08:54:54.911Z,100.00
2022-10-19T08:58:29.931Z,100.00
2022-10-19T09:01:52.164Z,100.00
2022-10-19T09:04:50.372Z,100.00
2022-10-19T09:07:45.647Z,100.00
2022-10-19T09:10:42.316Z,100.00
2022-10-19T09:14:06.172Z,100.00
2022-10-19T09:17:04.199Z,100.00
2022-10-19T09:19:52.865Z,100.00
2022-10-19T09:22:43.957Z,100.00
2022-10-19T09:25:38.321Z,100.00
2022-10-19T09:28:47.566Z,100.00
2022-10-19T09:31:40.976Z,100.00
2022-10-19T09:34:58.941Z,100.00
2022-10-19T09:37:51.521Z,100.00
2022-10-19T09:40:38.775Z,100.00
2022-10-19T09:43:28.271Z,100.00
2022-10-19T09:46:42.115Z,100.00
2022-10-19T09:49:47.224Z,100.00
2022-10-19T09:52:41.547Z,100.00
2022-10-19T09:55:56.049Z,100.00
2022-10-19T09:58:58.912Z,100.00
2022-10-19T10:01:46.339Z,100.00
2022-10-19T10:04:36.490Z,100.00
2022-10-19T10:07:39.230Z,100.00
2022-10-19T10:13:55.517Z,100.00
2022-10-19T10:16:43.209Z,100.00
2022-10-19T10:22:37.805Z,100.00
2022-10-19T10:25:36.225Z,100.00
2022-10-19T10:28:29.446Z,100.00
2022-10-19T10:31:27.428Z,100.00
2022-10-19T10:34:46.327Z,100.00
2022-10-19T10:37:45.966Z,100.00
2022-10-19T10:40:33.649Z,100.00
2022-10-19T10:43:33.679Z,100.00
2022-10-19T10:46:29.118Z,100.00
2022-10-19T10:49:34.664Z,100.00
2022-10-19T10:52:23.606Z,100.00
2022-10-19T10:55:10.789Z,100.00
2022-10-19T10:58:34.783Z,100.00
2022-10-19T11:01:39.707Z,98.20
2022-10-19T11:04:42.399Z,94.86
2022-10-19T11:07:36.050Z,96.88
2022-10-19T11:10:41.384Z,96.25
2022-10-19T11:13:48.816Z,98.92
2022-10-19T11:16:46.881Z,97.24
2022-10-19T11:19:45.369Z,96.90
2022-10-19T11:23:04.506Z,94.16
2022-10-19T11:26:28.037Z,93.55
2022-10-19T11:29:42.606Z,90.60
2022-10-19T11:33:16.097Z,87.97
2022-10-19T11:36:38.027Z,88.65
2022-10-19T11:40:05.758Z,83.26
2022-10-19T11:43:29.407Z,85.04
2022-10-19T11:46:26.347Z,80.72
2022-10-19T11:49:56.391Z,80.92
2022-10-19T11:53:15.891Z,81.94
2022-10-19T11:57:08.313Z,85.59
2022-10-19T12:00:37.517Z,84.56
2022-10-19T12:04:36.899Z,86.30
2022-10-19T12:07:56.843Z,84.96
2022-10-19T12:11:49.170Z,87.50
2022-10-19T12:14:46.766Z,85.71
2022-10-19T12:17:42.600Z,87.76
2022-10-19T12:20:45.749Z,84.42
2022-10-19T12:23:41.445Z,80.87
2022-10-19T12:26:37.187Z,80.31
2022-10-19T12:29:41.970Z,81.75
2022-10-19T12:32:44.821Z,80.92
2022-10-19T12:36:19.631Z,78.92
2022-10-19T12:40:05.260Z,83.02
2022-10-19T12:43:14.713Z,81.82
2022-10-19T12:46:30.638Z,80.72
2022-10-19T12:49:51.706Z,76.76
2022-10-19T12:52:52.351Z,80.47
2022-10-19T12:55:42.346Z,80.08
2022-10-19T12:58:47.632Z,81.81
2022-10-19T13:01:35.162Z,80.21
2022-10-19T13:04:37.758Z,79.31
2022-10-19T13:07:31.950Z,79.88
2022-10-19T13:10:27.350Z,76.28
2022-10-19T13:13:56.600Z,72.91
2022-10-19T13:17:09.107Z,81.66
2022-10-19T13:20:19.387Z,77.97
2022-10-19T13:23:06.519Z,71.88
2022-10-19T13:26:35.546Z,73.10
2022-10-19T13:29:39.228Z,76.12
2022-10-19T13:32:45.952Z,72.14
2022-10-19T13:35:36.073Z,71.99
2022-10-19T13:38:31.413Z,75.06
2022-10-19T13:41:25.855Z,73.94
2022-10-19T13:44:13.903Z,73.95
2022-10-19T13:47:19.404Z,74.17
2022-10-19T13:50:42.911Z,71.72
2022-10-19T13:54:24.526Z,72.33
2022-10-19T13:57:53.155Z,69.71
2022-10-19T14:01:54.544Z,71.81
2022-10-19T14:05:28.462Z,68.30
2022-10-19T14:08:55.559Z,69.00
2022-10-19T14:11:52.790Z,70.32
2022-10-19T14:14:44.810Z,73.22
2022-10-19T14:17:35.276Z,72.03
2022-10-19T14:20:30.041Z,72.88
2022-10-19T14:23:40.274Z,74.04
2022-10-19T14:26:31.278Z,71.65
2022-10-19T14:29:18.650Z,74.00
2022-10-19T14:32:06.138Z,75.71
2022-10-19T14:38:29.817Z,73.58
2022-10-19T14:41:36.136Z,72.52
2022-10-19T14:44:40.395Z,75.20
2022-10-19T14:47:27.757Z,78.28
2022-10-19T14:50:15.284Z,84.11
2022-10-19T14:53:39.856Z,84.72
2022-10-19T14:56:50.300Z,79.77
2022-10-19T14:59:50.640Z,81.51
2022-10-19T15:02:47.114Z,78.21
2022-10-19T15:05:46.854Z,83.92
2022-10-19T15:08:47.902Z,87.15
2022-10-19T15:11:46.793Z,85.16
2022-10-19T15:14:35.383Z,91.27
2022-10-19T15:17:32.089Z,89.20
2022-10-19T15:20:44.156Z,94.34
2022-10-19T15:23:51.755Z,100.00
2022-10-19T15:26:39.103Z,100.00
2022-10-19T15:29:30.078Z,100.00
2022-10-19T15:32:31.924Z,100.00
2022-10-19T15:35:32.151Z,100.00
2022-10-19T15:38:28.860Z,100.00
2022-10-19T15:41:25.674Z,100.00
2022-10-19T15:44:44.134Z,100.00
2022-10-19T15:47:31.858Z,100.00
2022-10-19T15:50:42.781Z,100.00
2022-10-19T15:53:30.074Z,100.00
2022-10-19T15:56:17.575Z,100.00
2022-10-19T15:59:19.352Z,100.00
2022-10-19T16:02:13.840Z,100.00
2022-10-19T16:05:01.203Z,100.00
2022-10-19T16:07:48.987Z,100.00
2022-10-19T16:10:36.334Z,100.00
2022-10-19T16:13:23.625Z,100.00
2022-10-19T16:16:24.704Z,100.00
2022-10-19T16:40:12.969Z,100.00
2022-10-19T16:43:00.808Z,100.00
2022-10-19T16:45:48.291Z,100.00
2022-10-19T16:48:15.317Z,100.00
2022-10-19T16:53:29.134Z,100.00
2022-10-19T16:56:10.814Z,100.00
2022-10-19T16:58:40.048Z,100.00
2022-10-19T17:01:16.420Z,100.00
2022-10-19T17:03:47.301Z,100.00
2022-10-19T17:06:17.384Z,100.00
2022-10-19T17:09:23.708Z,100.00
2022-10-19T17:11:39.362Z,100.00
2022-10-19T17:14:12.317Z,100.00
2022-10-19T17:16:40.345Z,100.00
2022-10-19T17:19:10.000Z,100.00
2022-10-19T17:21:39.561Z,100.00
2022-10-19T17:24:18.432Z,100.00
2022-10-19T17:26:47.288Z,100.00
2022-10-19T17:29:14.749Z,100.00
2022-10-19T17:31:43.596Z,100.00
2022-10-19T17:34:11.918Z,100.00
2022-10-19T17:36:47.455Z,100.00
2022-10-19T17:39:25.792Z,100.00
2022-10-19T17:42:01.999Z,100.00
2022-10-19T17:44:31.602Z,100.00
2022-10-19T17:47:00.931Z,100.00
2022-10-19T17:49:29.888Z,100.00
2022-10-19T17:51:57.818Z,100.00
2022-10-19T17:54:24.821Z,100.00
2022-10-19T17:56:52.052Z,100.00
2022-10-19T17:59:30.039Z,100.00
2022-10-19T18:02:04.526Z,100.00
2022-10-19T18:04:31.964Z,100.00
2022-10-19T18:06:58.968Z,100.00
2022-10-19T18:09:26.141Z,100.00
2022-10-19T18:11:54.006Z,100.00
2022-10-19T18:14:21.264Z,100.00
2022-10-19T18:16:49.650Z,100.00
2022-10-19T18:19:17.409Z,100.00
2022-10-19T18:21:47.399Z,100.00
2022-10-19T18:24:20.293Z,100.00
2022-10-19T18:26:52.053Z,100.00
2022-10-19T18:29:24.860Z,100.00
2022-10-19T18:31:53.474Z,100.00
2022-10-19T18:34:26.617Z,100.00
2022-10-19T18:36:55.028Z,100.00
2022-10-19T18:39:40.717Z,100.00
2022-10-19T18:42:14.800Z,100.00
2022-10-19T18:44:41.713Z,100.00
2022-10-19T18:47:08.839Z,100.00
2022-10-19T18:49:36.028Z,100.00
2022-10-19T18:52:02.985Z,100.00
2022-10-19T18:54:30.088Z,100.00
2022-10-19T18:56:57.148Z,100.00
2022-10-19T18:59:24.307Z,100.00
2022-10-19T19:01:51.837Z,100.00
2022-10-19T19:04:19.058Z,100.00
2022-10-19T19:06:46.079Z,100.00
2022-10-19T19:09:14.231Z,100.00
2022-10-19T19:11:41.743Z,100.00
2022-10-19T19:14:21.008Z,100.00
2022-10-19T19:16:48.819Z,100.00
2022-10-19T19:19:19.765Z,100.00
2022-10-19T19:21:47.816Z,100.00
2022-10-19T19:24:19.799Z,100.00
2022-10-19T19:26:53.264Z,100.00
2022-10-19T19:29:22.256Z,100.00
2022-10-19T19:31:49.390Z,100.00
2022-10-19T19:34:16.910Z,100.00
2022-10-19T19:36:48.343Z,100.00
2022-10-19T19:39:20.800Z,100.00
2022-10-19T19:41:50.215Z,100.00
2022-10-19T19:44:19.491Z,100.00
2022-10-19T19:46:47.930Z,100.00
2022-10-19T19:49:16.796Z,100.00
2022-10-19T19:51:44.994Z,100.00
2022-10-19T19:54:13.210Z,100.00
2022-10-19T19:56:42.552Z,100.00
2022-10-19T19:59:13.062Z,100.00
2022-10-19T20:01:41.968Z,100.00
2022-10-19T20:04:12.438Z,100.00
2022-10-19T20:06:41.677Z,100.00
2022-10-19T20:09:10.859Z,100.00
2022-10-19T20:11:42.085Z,100.00
2022-10-19T20:14:10.517Z,100.00
2022-10-19T20:16:37.539Z,100.00
2022-10-19T20:19:14.647Z,100.00
2022-10-19T20:21:42.698Z,100.00
2022-10-19T20:24:10.531Z,100.00
2022-10-19T20:26:37.812Z,100.00
2022-10-19T20:29:06.286Z,100.00
2022-10-19T20:31:39.483Z,100.00
2022-10-19T20:34:14.242Z,100.00
2022-10-19T20:36:41.676Z,100.00
2022-10-19T20:39:09.938Z,100.00
2022-10-19T20:41:36.893Z,100.00
2022-10-19T20:44:04.631Z,100.00
2022-10-19T20:46:31.778Z,100.00
2022-10-19T20:49:01.944Z,100.00
2022-10-19T20:51:36.937Z,100.00
2022-10-19T20:54:09.919Z,100.00
2022-10-19T20:56:40.951Z,100.00
2022-10-19T20:59:19.942Z,100.00
2022-10-19T21:01:52.180Z,100.00
2022-10-19T21:04:19.397Z,100.00
2022-10-19T21:06:51.137Z,100.00
2022-10-19T21:09:23.703Z,100.00
2022-10-19T21:11:53.712Z,100.00
2022-10-19T21:14:29.512Z,100.00
2022-10-19T21:17:00.781Z,100.00
2022-10-19T21:19:30.933Z,100.00
2022-10-19T21:22:02.484Z,100.00
2022-10-19T21:24:36.738Z,100.00
2022-10-19T21:27:14.237Z,100.00
2022-10-19T21:29:42.305Z,100.00
2022-10-19T21:32:10.943Z,100.00
2022-10-19T21:34:38.491Z,100.00
2022-10-19T21:37:06.293Z,100.00
2022-10-19T21:39:33.056Z,100.00
2022-10-19T21:41:59.797Z,100.00
2022-10-19T21:44:26.543Z,100.00
2022-10-19T21:46:53.379Z,100.00
2022-10-19T21:49:20.175Z,100.00
2022-10-19T21:51:54.760Z,100.00
2022-10-19T21:54:25.490Z,100.00
2022-10-19T21:56:53.515Z,100.00
2022-10-19T21:59:20.301Z,100.00
2022-10-19T22:01:47.228Z,100.00
2022-10-19T22:04:18.136Z,100.00
2022-10-19T22:06:45.515Z,100.00
2022-10-19T22:09:21.807Z,100.00
2022-10-19T22:11:49.256Z,100.00
2022-10-19T22:14:17.904Z,100.00
2022-10-19T22:16:45.256Z,100.00
2022-10-19T22:19:13.339Z,100.00
2022-10-19T22:21:40.599Z,100.00
2022-10-19T22:24:15.429Z,100.00
2022-10-19T22:26:50.750Z,100.00
2022-10-19T22:29:18.671Z,100.00
2022-10-19T22:31:45.543Z,100.00
2022-10-19T22:34:17.391Z,100.00
2022-10-19T22:36:45.515Z,100.00
2022-10-19T22:39:14.162Z,100.00
2022-10-19T22:41:40.915Z,100.00
2022-10-19T22:44:07.853Z,100.00
2022-10-19T22:46:34.886Z,100.00
2022-10-19T22:49:01.944Z,100.00
2022-10-19T22:51:28.963Z,100.00
2022-10-19T22:53:56.034Z,100.00
2022-10-19T22:56:23.051Z,100.00
2022-10-19T22:58:50.048Z,100.00
2022-10-19T23:01:17.944Z,100.00
2022-10-19T23:03:45.028Z,100.00
2022-10-19T23:06:15.671Z,100.00
2022-10-19T23:08:44.542Z,100.00
2022-10-19T23:11:13.151Z,100.00
2022-10-19T23:13:41.344Z,100.00
2022-10-19T23:16:10.133Z,100.00
2022-10-19T23:18:41.222Z,100.00
2022-10-19T23:21:13.385Z,100.00
2022-10-19T23:23:41.775Z,100.00
2022-10-19T23:26:19.011Z,100.00
2022-10-19T23:28:49.987Z,100.00
2022-10-19T23:31:26.190Z,100.00
2022-10-19T23:33:57.312Z,100.00
2022-10-19T23:36:28.936Z,100.00
2022-10-19T23:38:58.767Z,100.00
2022-10-19T23:41:26.251Z,100.00
2022-10-19T23:43:53.148Z,100.00
2022-10-19T23:46:20.707Z,100.00
2022-10-19T23:48:47.632Z,100.00
2022-10-19T23:51:19.517Z,100.00
2022-10-19T23:53:50.531Z,100.00
2022-10-19T23:56:26.471Z,100.00
2022-10-19T23:58:54.993Z,100.00
